Terminal Aerodrome Forecast
Issued by NWS

Home | Current Version | Previous Version | Text Only | Print | Product List | Glossary On
Versions: 1 2 3 4 5 6 7 8 9 10 11 12 13 14 15
000
FTUS44 KCRP 230500
TAFALI
TAF
KALI 230532Z 2306/2406 13005KT P6SM FEW015 SCT060
     FM230900 VRB03KT 3SM BR FEW005 BKN015
      TEMPO 2310/2314 1SM BR BKN005
     FM231430 15010KT P6SM SCT020
     FM231800 14016G22KT P6SM FEW040 BKN250
     FM240200 14012KT P6SM SCT015 BKN250=

USA.gov is the U.S. government's official web portal to all federal, state and local government web resources and services.